Latest Weather Observations for Ballina

IDN60801

Issued at 12:35 am EDT Saturday 1 November 2014 (issued every 30 minutes, with the page automatically refreshed every 10 minutes)

About weather observations | Map of weather stations | Latest weather observations for NSW | Other Formats
Station Details ID: 058198 Name: BALLINA AIRPORT AWS Lat: -28.84 Lon: 153.56 Height: 1.3 m
Data from the previous 72 hours. | See also: Recent months at Ballina
Date/Time
EDT
Temp
°C
App
Temp
°C
Dew
Point
Rel
Hum
%
Delta-T
°C
Wind Press
QNH
hPa
Press
MSL
hPa
Rain
since 9 am
mm
Dir
 
Spd
km/h
Gust
km/h
Spd
kts
Gust
kts
01/12:30am 22.4 21.2 18.4 78 2.5 N 22 33 12 18 1013.4 1013.4 0.0
01/12:00am 22.4 21.6 18.4 78 2.5 N 20 32 11 17 1013.8 1013.8 0.0
 
Date/Time
EDT
Temp
°C
App
Temp
°C
Dew
Point
Rel
Hum
%
Delta-T
°C
Wind Press
QNH
hPa
Press
MSL
hPa
Rain
since 9 am
mm
Dir
 
Spd
km/h
Gust
km/h
Spd
kts
Gust
kts
31/11:30pm 22.7 20.9 18.7 78 2.5 N 26 44 14 24 1014.0 1014.0 0.0
31/11:00pm 22.6 21.1 18.6 78 2.5 N 24 35 13 19 1014.2 1014.2 0.0
31/10:30pm 22.8 21.5 19.0 79 2.4 N 24 39 13 21 1014.1 1014.1 0.0
31/10:00pm 23.0 21.9 19.4 80 2.3 N 24 43 13 23 1014.3 1014.3 0.0
31/09:30pm 23.2 20.7 19.8 81 2.2 N 32 48 17 26 1013.9 1013.9 0.0
31/09:23pm 23.1 21.0 19.7 81 2.2 N 30 48 16 26 1013.8 1013.8 0.0
31/09:00pm 23.0 20.7 19.4 80 2.3 NNE 30 43 16 23 1013.3 1013.3 0.0
31/08:30pm 23.0 20.4 19.4 80 2.3 NNE 32 44 17 24 1013.0 1013.0 0.0
31/08:00pm 23.0 20.5 19.8 82 2.1 NNE 32 44 17 24 1012.8 1012.8 0.0
31/07:36pm 23.1 20.7 19.9 82 2.1 NNE 32 50 17 27 1012.8 1012.8 0.0
31/07:30pm 23.1 20.5 19.9 82 2.1 NNE 33 50 18 27 1012.7 1012.7 0.0
31/07:27pm 23.1 20.7 19.9 82 2.1 NNE 32 50 17 27 1012.7 1012.7 0.0
31/07:00pm 23.2 21.1 19.8 81 2.2 NNE 30 46 16 25 1012.4 1012.4 0.0
31/06:30pm 23.6 20.9 19.3 77 2.7 N 32 50 17 27 1012.1 1012.1 0.0
31/06:00pm 24.4 21.5 18.8 71 3.6 NNE 32 50 17 27 1011.8 1011.8 0.0
31/05:30pm 25.2 22.5 19.3 70 3.8 NNE 32 50 17 27 1011.9 1011.9 0.0
31/05:07pm 25.7 22.6 18.9 66 4.3 N 33 52 18 28 1011.9 1011.9 0.0
31/05:00pm 25.5 22.3 18.7 66 4.3 NNE 33 50 18 27 1011.8 1011.8 0.0
31/04:45pm 26.2 22.8 19.1 65 4.6 NNE 35 54 19 29 1011.9 1011.9 0.0
31/04:30pm 26.3 23.1 18.7 63 4.9 NNE 33 48 18 26 1011.8 1011.8 0.0
31/04:21pm 26.5 24.4 18.9 63 4.9 NNE 28 46 15 25 1011.8 1011.8 0.0
31/04:00pm 26.2 23.4 19.1 65 4.6 NE 32 44 17 24 1011.9 1011.9 0.0
31/03:30pm 26.6 23.8 19.0 63 4.9 NE 32 41 17 22 1012.2 1012.2 0.0
31/03:00pm 27.0 24.2 19.1 62 5.1 NE 32 43 17 23 1012.5 1012.5 0.0
31/02:30pm 27.6 25.9 19.7 62 5.1 NE 28 41 15 22 1013.0 1013.0 0.0
31/02:00pm 27.1 24.5 18.7 60 5.4 NE 30 39 16 21 1013.5 1013.5 0.0
31/01:30pm 27.4 24.6 19.5 62 5.1 NE 33 43 18 23 1013.9 1013.9 0.0
31/01:00pm 27.2 25.3 19.3 62 5.1 NE 28 39 15 21 1014.3 1014.3 0.0
31/12:30pm 27.0 24.1 18.8 60 5.3 NE 32 41 17 22 1014.7 1014.7 0.0
31/12:00pm 27.0 24.0 19.1 62 5.1 NE 33 41 18 22 1015.1 1015.1 0.0
31/11:30am 27.1 26.6 18.7 60 5.4 N 19 32 10 17 1015.6 1015.6 0.0
31/11:00am 26.8 26.1 18.6 60 5.2 NNE 20 28 11 15 1015.9 1015.9 0.0
31/10:30am 26.5 25.9 18.9 63 4.9 N 20 30 11 16 1016.1 1016.1 0.0
31/10:00am 26.2 26.0 19.8 68 4.1 NNE 20 28 11 15 1016.2 1016.2 0.0
31/09:30am 25.7 25.5 19.8 70 3.8 N 20 32 11 17 1016.4 1016.4 0.0
31/09:00am 24.5 24.2 19.1 72 3.4 N 19 30 10 16 1016.6 1016.6 0.0
31/08:30am 23.6 23.3 19.1 76 2.9 N 19 28 10 15 1016.5 1016.5 0.0
31/08:00am 21.8 23.1 19.4 86 1.5 NNE 11 17 6 9 1016.5 1016.5 0.0
31/07:30am 20.0 23.1 19.5 97 0.3 W 2 7 1 4 1016.5 1016.5 0.0
31/07:00am 18.0 19.5 17.7 98 0.2 W 6 7 3 4 1016.4 1016.4 0.0
31/06:51am 17.6 19.0 17.3 98 0.2 W 6 7 3 4 1016.3 1016.3 0.0
31/06:30am 16.6 18.7 16.3 98 0.2 W 0 0 0 0 1016.0 1016.0 0.0
31/06:21am 16.4 18.4 16.1 98 0.2 CALM 0 4 0 2 1015.9 1015.9 0.0
31/06:17am 16.3 17.9 16.0 98 0.2 W 2 6 1 3 1015.9 1015.9 0.0
31/06:00am 15.7 16.3 15.2 97 0.3 W 6 9 3 5 1015.7 1015.7 0.0
31/05:30am 16.6 18.6 16.1 97 0.3 CALM 0 0 0 0 1015.5 1015.5 0.0
31/05:00am 16.4 17.9 15.8 96 0.4 N 2 6 1 3 1015.1 1015.1 0.0
31/04:30am 16.8 18.1 16.2 96 0.4 WNW 4 6 2 3 1014.9 1014.9 0.0
31/04:00am 17.4 19.6 16.6 95 0.5 CALM 0 0 0 0 1014.9 1014.9 0.0
31/03:35am 17.7 20.1 16.9 95 0.5 CALM 0 0 0 0 1015.0 1015.0 0.0
31/03:30am 18.2 20.4 17.4 95 0.5 W 2 6 1 3 1015.1 1015.1 0.0
31/03:00am 18.9 21.8 18.1 95 0.5 CALM 0 0 0 0 1015.0 1015.0 0.0
31/02:30am 19.2 21.2 17.9 92 0.8 NNE 4 7 2 4 1015.1 1015.1 0.0
31/02:00am 19.3 20.2 17.6 90 1.0 NNE 9 11 5 6 1015.2 1015.2 0.0
31/01:30am 19.1 20.1 16.9 87 1.3 NE 7 11 4 6 1015.5 1015.5 0.0
31/01:00am 20.4 21.5 18.0 86 1.5 N 9 13 5 7 1015.8 1015.8 0.0
31/12:30am 20.8 21.3 18.4 86 1.5 N 13 20 7 11 1015.9 1015.9 0.0
31/12:00am 21.0 21.2 18.6 86 1.5 N 15 22 8 12 1015.9 1015.9 0.0
 
Date/Time
EDT
Temp
°C
App
Temp
°C
Dew
Point
Rel
Hum
%
Delta-T
°C
Wind Press
QNH
hPa
Press
MSL
hPa
Rain
since 9 am
mm
Dir
 
Spd
km/h
Gust
km/h
Spd
kts
Gust
kts
30/11:30pm 21.2 21.0 18.6 85 1.6 N 17 24 9 13 1015.9 1015.9 0.0
30/11:00pm 21.0 21.0 18.2 84 1.7 NNE 15 24 8 13 1015.8 1015.8 0.0
30/10:30pm 21.2 20.8 18.0 82 2.0 NNE 17 24 9 13 1015.7 1015.7 0.0
30/10:00pm 21.3 20.8 17.9 81 2.1 NNE 17 24 9 13 1015.6 1015.6 0.0
30/09:30pm 21.4 21.1 18.2 82 2.0 NNE 17 20 9 11 1015.6 1015.6 0.0
30/09:00pm 21.6 21.4 18.4 82 2.0 N 17 28 9 15 1015.1 1015.1 0.0
30/08:30pm 21.5 20.8 18.3 82 2.0 NNE 19 28 10 15 1014.8 1014.8 0.0
30/08:00pm 21.6 20.9 18.2 81 2.1 NNE 19 32 10 17 1014.5 1014.5 0.0
30/07:30pm 21.6 20.4 17.6 78 2.5 NNE 20 26 11 14 1014.2 1014.2 0.0
30/07:00pm 21.9 20.7 17.5 76 2.7 NNE 20 35 11 19 1013.9 1013.9 0.0
30/06:30pm 22.3 20.1 17.0 72 3.2 NNE 24 37 13 20 1013.7 1013.7 0.0
30/06:00pm 22.9 20.7 16.9 69 3.7 NNE 24 32 13 17 1013.5 1013.5 0.0
30/05:30pm 23.4 20.4 16.7 66 4.1 NE 28 41 15 22 1013.6 1013.6 0.0
30/05:00pm 24.0 20.3 16.0 61 4.9 NNE 30 46 16 25 1013.8 1013.8 0.0
30/04:30pm 24.2 20.1 15.9 59 5.0 NE 32 41 17 22 1013.7 1013.7 0.0
30/04:00pm 24.9 20.7 15.8 57 5.5 NE 32 41 17 22 1014.0 1014.0 0.0
30/03:30pm 24.9 21.3 15.2 54 5.8 NE 28 39 15 21 1014.2 1014.2 0.0
30/03:00pm 25.3 21.3 15.3 54 6.0 NE 30 39 16 21 1014.2 1014.2 0.0
30/02:30pm 26.1 23.8 16.6 55 5.9 NE 24 33 13 18 1014.5 1014.5 0.0
30/02:00pm 24.8 22.0 17.3 63 4.7 ENE 28 39 15 21 1014.9 1014.9 0.0
30/01:30pm 25.2 22.9 17.7 63 4.7 NE 26 35 14 19 1015.5 1015.5 0.0
30/01:00pm 24.7 21.6 15.6 57 5.5 NE 26 33 14 18 1015.9 1015.9 0.0
30/12:30pm 25.8 24.3 17.7 61 5.1 ENE 22 30 12 16 1016.3 1016.3 0.0
30/12:00pm 25.6 22.7 14.1 49 6.8 ENE 22 30 12 16 1016.9 1016.9 0.0
30/11:30am 25.8 24.2 17.4 59 5.2 ENE 22 28 12 15 1017.1 1017.1 0.0
30/11:00am 24.8 23.6 17.0 62 4.8 NE 19 26 10 14 1017.4 1017.4 0.0
30/10:30am 25.1 24.4 17.3 62 4.9 NE 17 24 9 13 1017.7 1017.7 0.0
30/10:00am 25.3 24.8 17.7 62 4.8 ENE 17 22 9 12 1018.1 1018.1 0.0
30/09:30am 24.1 24.4 16.9 64 4.4 ENE 11 17 6 9 1018.4 1018.4 0.0
30/09:00am 22.7 24.1 16.5 68 3.8 NW 4 9 2 5 1018.6 1018.6 0.0
30/08:30am 21.5 22.8 17.1 76 2.7 WSW 6 9 3 5 1018.5 1018.5 0.0
30/08:00am 19.7 21.2 17.5 87 1.3 W 6 9 3 5 1018.4 1018.4 0.0
30/07:30am 17.8 20.2 17.0 95 0.5 CALM 0 0 0 0 1018.1 1018.1 0.0
30/07:00am 16.6 18.8 16.4 99 0.1 CALM 0 0 0 0 1017.9 1017.9 0.0
30/06:30am 14.3 15.6 14.0 98 0.2 CALM 0 0 0 0 1017.5 1017.5 0.0
30/06:22am 13.8 14.8 13.3 97 0.3 CALM 0 0 0 0 1017.4 1017.4 0.0
30/06:00am 13.6 14.6 13.1 97 0.3 CALM 0 0 0 0 1017.1 1017.1 0.0
30/05:58am 13.6 14.6 13.1 97 0.3 CALM 0 0 0 0 1017.1 1017.1 0.0
30/05:30am 13.3 14.1 12.7 96 0.3 CALM 0 0 0 0 1016.9 1016.9 0.0
30/05:00am 13.9 14.9 13.3 96 0.3 CALM 0 0 0 0 1016.9 1016.9 0.0
30/04:30am 14.4 15.6 13.8 96 0.3 CALM 0 0 0 0 1016.9 1016.9 0.0
30/04:00am 14.1 15.1 13.3 95 0.4 CALM 0 0 0 0 1016.8 1016.8 0.0
30/03:30am 14.8 16.1 14.0 95 0.4 CALM 0 0 0 0 1016.9 1016.9 0.0
30/03:25am 14.9 16.2 14.1 95 0.5 CALM 0 0 0 0 1016.9 1016.9 0.0
30/03:00am 14.8 16.1 14.0 95 0.4 CALM 0 0 0 0 1017.0 1017.0 0.0
30/02:45am 15.2 16.6 14.4 95 0.5 CALM 0 0 0 0 1017.1 1017.1 0.0
30/02:30am 15.2 16.5 14.2 94 0.6 CALM 0 0 0 0 1017.1 1017.1 0.0
30/02:00am 15.8 17.4 14.8 94 0.6 CALM 0 0 0 0 1017.3 1017.3 0.0
30/01:30am 16.0 17.6 14.9 93 0.6 CALM 0 0 0 0 1017.5 1017.5 0.0
30/01:00am 16.4 18.2 15.4 94 0.6 CALM 0 0 0 0 1017.8 1017.8 0.0
30/12:30am 16.7 18.5 15.6 93 0.6 CALM 0 0 0 0 1018.0 1018.0 0.0
30/12:00am 16.6 18.3 15.1 91 0.9 CALM 0 0 0 0 1018.2 1018.2 0.0
 
Date/Time
EDT
Temp
°C
App
Temp
°C
Dew
Point
Rel
Hum
%
Delta-T
°C
Wind Press
QNH
hPa
Press
MSL
hPa
Rain
since 9 am
mm
Dir
 
Spd
km/h
Gust
km/h
Spd
kts
Gust
kts
29/11:30pm 16.7 18.4 15.2 91 0.9 CALM 0 0 0 0 1018.2 1018.2 0.0
29/11:00pm 17.3 19.2 15.8 91 0.9 CALM 0 0 0 0 1018.2 1018.2 0.0
29/10:30pm 17.3 18.1 15.8 91 0.9 W 6 9 3 5 1018.1 1018.1 0.0
29/10:00pm 17.3 17.4 15.5 89 1.1 W 9 11 5 6 1018.2 1018.2 0.0
29/09:30pm 17.8 18.7 16.0 89 1.1 WNW 6 15 3 8 1018.1 1018.1 0.0
29/09:00pm 18.3 20.3 15.9 86 1.4 CALM 0 0 0 0 1017.8 1017.8 0.0
29/08:30pm 19.8 20.4 15.2 75 2.7 ESE 6 9 3 5 1017.5 1017.5 0.0
29/08:00pm 20.5 20.7 15.7 74 2.9 E 9 13 5 7 1017.1 1017.1 0.0
29/07:30pm 20.9 20.8 16.1 74 2.9 ESE 11 17 6 9 1016.7 1016.7 0.0
29/07:00pm 21.3 20.5 16.0 72 3.2 ESE 15 20 8 11 1016.3 1016.3 0.0
29/06:30pm 22.2 20.6 16.0 68 3.7 SE 19 28 10 15 1016.1 1016.1 0.0
29/06:00pm 23.1 21.9 16.2 65 4.2 ESE 17 24 9 13 1015.8 1015.8 0.0
29/05:30pm 23.8 22.0 16.1 62 4.7 SE 20 28 11 15 1015.5 1015.5 0.0
29/05:00pm 23.9 20.7 15.4 59 5.1 SE 26 33 14 18 1015.2 1015.2 0.0
29/04:30pm 24.2 20.5 15.1 56 5.4 SE 28 39 15 21 1015.0 1015.0 0.0
29/04:00pm 24.5 21.3 15.4 57 5.5 SSE 26 37 14 20 1015.3 1015.3 0.0
29/03:30pm 25.2 22.4 16.3 57 5.5 SSE 26 35 14 19 1015.4 1015.4 0.0
29/03:00pm 24.8 21.6 16.2 58 5.2 SSE 28 35 15 19 1015.6 1015.6 0.0
29/02:30pm 24.8 22.6 16.8 61 4.9 S 24 35 13 19 1015.8 1015.8 0.0
29/02:00pm 25.1 23.9 17.6 63 4.7 S 20 32 11 17 1016.0 1016.0 0.0
29/01:30pm 25.9 24.3 18.3 63 4.8 S 24 32 13 17 1016.0 1016.0 0.0
29/01:00pm 25.2 22.6 16.9 60 5.1 S 26 37 14 20 1016.2 1016.2 0.0
29/12:30pm 25.3 22.4 16.2 57 5.6 S 26 35 14 19 1016.3 1016.3 0.0
29/12:00pm 24.9 21.8 16.6 60 5.1 S 28 37 15 20 1016.5 1016.5 0.0
29/11:30am 25.4 24.2 19.3 69 3.9 S 24 32 13 17 1016.6 1016.6 0.0
29/11:00am 25.1 23.9 19.2 70 3.8 S 24 32 13 17 1016.7 1016.7 0.0
29/10:30am 24.4 23.2 19.2 73 3.3 S 24 33 13 18 1016.7 1016.7 0.0
29/10:00am 24.4 23.2 19.2 73 3.3 S 24 32 13 17 1016.4 1016.4 0.0
29/09:30am 24.2 23.2 18.8 72 3.4 S 22 30 12 16 1016.2 1016.2 0.0
29/09:00am 22.9 22.5 18.0 74 3.1 S 17 24 9 13 1015.9 1015.9 0.0
29/08:30am 22.7 22.8 19.1 80 2.3 SSW 17 22 9 12 1015.6 1015.6 0.0
29/08:00am 20.5 20.9 18.1 86 1.5 SW 13 19 7 10 1015.4 1015.4 0.0
29/07:30am 19.4 19.3 17.9 91 0.9 WSW 15 19 8 10 1015.0 1015.0 0.0
29/07:00am 19.0 19.5 18.3 96 0.4 WSW 13 15 7 8 1014.6 1014.6 0.0
29/06:30am 17.8 18.2 17.3 97 0.3 W 11 13 6 7 1014.2 1014.2 0.0
29/06:00am 17.5 18.7 16.9 96 0.4 WSW 6 7 3 4 1013.7 1013.7 0.0
29/05:30am 18.1 19.4 17.6 97 0.3 WSW 7 11 4 6 1013.3 1013.3 0.0
29/05:00am 18.4 20.1 18.1 98 0.2 WSW 6 9 3 5 1013.0 1013.0 0.0
29/04:30am 17.7 18.8 17.2 97 0.3 WSW 7 7 4 4 1012.7 1012.7 0.0
29/04:09am 17.4 18.4 16.9 97 0.3 W 7 9 4 5 1012.4 1012.4 0.0
29/04:00am 17.3 19.2 16.8 97 0.3 W 2 9 1 5 1012.3 1012.3 0.0
29/03:30am 17.2 19.6 16.9 98 0.2 CALM 0 0 0 0 1012.3 1012.3 0.0
29/03:00am 16.5 17.4 16.0 97 0.3 W 6 7 3 4 1012.2 1012.2 0.0
29/02:30am 15.3 15.5 14.7 96 0.3 W 7 9 4 5 1012.2 1012.2 0.0
29/02:26am 15.3 15.5 14.7 96 0.3 W 7 9 4 5 1012.1 1012.1 0.0
29/02:19am 15.6 16.5 15.1 97 0.3 WSW 4 7 2 4 1012.2 1012.2 0.0
29/02:05am 14.6 15.4 13.8 95 0.4 WSW 2 9 1 5 1012.3 1012.3 0.0
29/02:00am 14.6 15.8 13.8 95 0.4 CALM 0 2 0 1 1012.2 1012.2 0.0
29/01:30am 15.7 16.9 14.9 95 0.5 W 2 6 1 3 1012.2 1012.2 0.0
29/01:00am 16.1 17.1 15.3 95 0.5 W 4 6 2 3 1012.3 1012.3 0.0
29/12:49am 16.8 17.7 16.2 96 0.4 W 6 7 3 4 1012.4 1012.4 0.0

Other Formats:

Comma delimited format used in spreadsheet applications
http://www.bom.gov.au/fwo/IDN60801/IDN60801.94596.axf

JavaScript Object Notation format (JSON) in row-major order
http://www.bom.gov.au/fwo/IDN60801/IDN60801.94596.json